Time;durP1;ratioP1;P1;durP2;ratioP2;P2;SDS_P1;SDS_P2;PMS_P1;PMS_P2;Temp;Humidity;BMP_temperature;BMP_pressure;BME280_temperature;BME280_humidity;BME280_pressure;Samples;Min_cycle;Max_cycle;Signal;HPM_P1;HPM_P2
2021/12/17 00:07:12;;;;;;;11.20;3.70;;;;;;;1.63;80.11;98451.81;4988395;28;20061;-66
2021/12/17 00:09:42;;;;;;;15.05;4.45;;;;;;;1.63;79.73;98453.75;4992553;28;20073;-65
2021/12/17 00:12:12;;;;;;;9.68;4.03;;;;;;;1.66;79.60;98462.16;4993372;28;20113;-66
2021/12/17 00:14:42;;;;;;;13.57;4.20;;;;;;;1.65;79.81;98466.03;4991347;28;20050;-66
2021/12/17 00:17:14;;;;;;;11.30;3.73;;;;;;;1.70;79.39;98463.22;4993174;28;20078;-65
2021/12/17 00:52:24;;;;;;;2.72;1.58;;;;;;;1.45;79.57;98499.25;4992640;28;20559;-58
2021/12/17 00:54:51;;;;;;;2.90;1.65;;;;;;;1.51;79.40;98503.53;4992276;28;20517;-58
2021/12/17 00:57:23;;;;;;;4.35;1.95;;;;;;;1.48;79.40;98493.16;4992956;28;20054;-59
2021/12/17 00:59:53;;;;;;;2.95;1.60;;;;;;;1.46;79.36;98495.41;4992052;28;20096;-60
2021/12/17 01:02:27;;;;;;;2.53;2.00;;;;;;;1.44;79.67;98494.91;4991110;28;20082;-58
2021/12/17 01:05:00;;;;;;;2.85;1.38;;;;;;;1.46;79.62;98506.38;4992330;28;20089;-58
2021/12/17 01:07:33;;;;;;;3.25;1.58;;;;;;;1.43;79.94;98503.41;4992168;28;20042;-60
2021/12/17 01:10:03;;;;;;;5.85;2.10;;;;;;;1.44;79.69;98503.13;4992349;28;20080;-58
2021/12/17 01:12:30;;;;;;;5.53;2.25;;;;;;;1.43;79.57;98512.47;4992593;28;20097;-58
2021/12/17 01:14:57;;;;;;;7.30;1.65;;;;;;;1.45;79.38;98510.22;4990616;28;20050;-59
2021/12/17 01:17:27;;;;;;;4.18;1.90;;;;;;;1.44;79.68;98510.50;4992090;28;20069;-59
2021/12/17 01:25:02;;;;;;;8.77;1.67;;;;;;;1.51;79.12;98503.53;4991801;28;20097;-59
2021/12/17 01:35:46;;;;;;;4.32;2.05;;;;;;;1.51;79.22;98506.28;4989593;28;20053;-60
2021/12/17 01:43:45;;;;;;;3.22;1.90;;;;;;;1.63;78.60;98517.59;4995162;28;20508;-59
2021/12/17 01:46:21;;;;;;;3.63;2.15;;;;;;;1.55;78.44;98521.03;4995962;28;20056;-59
2021/12/17 01:59:49;;;;;;;4.47;2.85;;;;;;;1.37;79.53;98534.75;4995213;28;20043;-60
2021/12/17 02:02:16;;;;;;;5.15;2.58;;;;;;;1.33;79.18;98534.50;4994331;28;20050;-58
2021/12/17 02:04:44;;;;;;;4.18;2.63;;;;;;;1.35;78.96;98537.78;4995317;28;20050;-60
2021/12/17 02:07:12;;;;;;;4.15;2.67;;;;;;;1.38;79.10;98541.84;4995131;28;20070;-60
2021/12/17 02:21:01;;;;;;;3.92;2.58;;;;;;;1.36;79.07;98536.66;4994778;28;20046;-62
2021/12/17 02:31:48;;;;;;;5.70;2.97;;;;;;;1.43;78.77;98539.03;4994681;28;20082;-62
2021/12/17 02:37:06;;;;;;;5.78;2.50;;;;;;;1.49;78.51;98549.63;4994214;28;20078;-62
2021/12/17 02:48:07;;;;;;;4.10;2.53;;;;;;;1.49;78.74;98557.84;4994873;28;20054;-62
2021/12/17 02:50:38;;;;;;;4.28;2.35;;;;;;;1.48;78.52;98553.44;4992780;28;20092;-62
2021/12/17 02:53:07;;;;;;;5.47;2.70;;;;;;;1.49;78.56;98554.28;4994656;28;20064;-62
2021/12/17 02:55:40;;;;;;;4.67;2.50;;;;;;;1.49;78.49;98555.09;4994224;28;20074;-64
2021/12/17 02:58:08;;;;;;;4.43;2.55;;;;;;;1.49;78.17;98549.63;4994317;28;20141;-62
2021/12/17 03:00:37;;;;;;;4.03;2.33;;;;;;;1.50;78.29;98551.25;4993923;28;20129;-63
2021/12/17 03:03:07;;;;;;;3.50;1.70;;;;;;;1.50;78.04;98548.50;4994454;28;20084;-61
2021/12/17 03:05:36;;;;;;;7.05;2.53;;;;;;;1.49;78.10;98554.28;4992434;28;20053;-63
2021/12/17 03:08:05;;;;;;;4.18;2.47;;;;;;;1.53;78.39;98556.13;4994138;28;20050;-62
2021/12/17 03:10:33;;;;;;;2.90;1.73;;;;;;;1.48;78.48;98553.44;4993297;28;20093;-62
2021/12/17 03:13:03;;;;;;;3.88;2.17;;;;;;;1.44;78.34;98557.91;4994080;28;20593;-62
2021/12/17 03:26:01;;;;;;;2.65;1.70;;;;;;;1.30;77.88;98556.22;4988766;28;20087;-62
2021/12/17 03:28:29;;;;;;;6.00;2.28;;;;;;;1.31;77.85;98553.19;4993686;28;20047;-62
2021/12/17 03:30:57;;;;;;;3.63;2.17;;;;;;;1.33;77.73;98548.22;4990381;28;20069;-63
2021/12/17 03:33:24;;;;;;;3.45;2.15;;;;;;;1.32;77.81;98543.84;4993209;28;20141;-62
2021/12/17 03:35:52;;;;;;;3.72;2.00;;;;;;;1.29;77.96;98546.38;4993746;28;20145;-62
2021/12/17 03:38:19;;;;;;;3.38;1.77;;;;;;;1.25;77.97;98546.13;4992749;28;20113;-62
2021/12/17 03:40:47;;;;;;;2.97;1.88;;;;;;;1.22;78.11;98549.47;4993516;28;20150;-66
2021/12/17 03:43:22;;;;;;;2.53;1.60;;;;;;;1.19;78.11;98544.56;4993584;28;20072;-64
2021/12/17 03:45:49;;;;;;;3.53;1.67;;;;;;;1.18;78.17;98545.69;4992052;28;20050;-65
2021/12/17 03:48:16;;;;;;;4.88;1.88;;;;;;;1.14;78.22;98549.31;4993250;28;20466;-65
2021/12/17 03:50:43;;;;;;;2.55;1.77;;;;;;;1.17;77.87;98554.22;4993178;28;20069;-66
2021/12/17 03:53:10;;;;;;;3.60;2.03;;;;;;;1.19;78.14;98550.06;4993563;28;20157;-64
2021/12/17 03:55:37;;;;;;;2.85;1.60;;;;;;;1.23;78.05;98550.28;4993004;28;20066;-65
2021/12/17 03:58:04;;;;;;;3.05;1.73;;;;;;;1.20;77.91;98556.34;4993404;28;20417;-65
2021/12/17 04:00:32;;;;;;;3.42;1.73;;;;;;;1.13;78.20;98551.25;4992607;28;20569;-66
2021/12/17 04:02:59;;;;;;;3.13;1.85;;;;;;;1.08;78.61;98547.78;4993222;28;20485;-65
2021/12/17 04:05:26;;;;;;;2.85;1.70;;;;;;;1.08;78.53;98543.13;4991205;28;20145;-65
2021/12/17 04:07:53;;;;;;;5.40;1.90;;;;;;;1.14;78.45;98547.41;4992902;28;20073;-65
2021/12/17 04:10:23;;;;;;;2.80;1.73;;;;;;;1.15;78.13;98548.19;4992699;28;20098;-65
2021/12/17 04:12:58;;;;;;;3.28;1.95;;;;;;;1.18;78.21;98542.13;4993012;28;20061;-65
2021/12/17 04:15:36;;;;;;;3.80;1.92;;;;;;;1.19;77.74;98550.06;4991558;28;20141;-66
2021/12/17 04:18:09;;;;;;;3.83;2.00;;;;;;;1.23;77.99;98553.84;4992855;28;20506;-65
2021/12/17 04:20:37;;;;;;;3.38;1.88;;;;;;;1.22;77.41;98554.16;4992294;28;20050;-65
2021/12/17 04:23:04;;;;;;;2.85;1.90;;;;;;;1.22;77.67;98554.94;4992525;28;20084;-65
2021/12/17 04:25:31;;;;;;;3.90;1.67;;;;;;;1.21;77.46;98564.28;4990682;28;20405;-65
2021/12/17 04:27:58;;;;;;;4.63;2.35;;;;;;;1.24;77.53;98568.34;4992601;28;20450;-65
2021/12/17 04:30:26;;;;;;;4.03;1.83;;;;;;;1.25;77.60;98559.81;4992222;28;20129;-66
2021/12/17 04:32:54;;;;;;;3.10;1.98;;;;;;;1.26;77.44;98558.72;4993268;28;20145;-66
2021/12/17 04:35:21;;;;;;;2.88;1.50;;;;;;;1.17;77.59;98566.00;4992665;28;20054;-66
2021/12/17 04:37:48;;;;;;;3.47;1.60;;;;;;;1.12;77.35;98568.78;4988755;28;20212;-57
2021/12/17 04:40:16;;;;;;;2.33;1.42;;;;;;;1.08;77.72;98567.75;4992214;28;20049;-58
2021/12/17 04:45:22;;;;;;;3.08;1.48;;;;;;;1.05;77.82;98576.56;4991974;28;20407;-59
2021/12/17 04:58:53;;;;;;;4.05;1.40;;;;;;;1.06;77.54;98591.88;4992204;28;20065;-58
2021/12/17 05:01:21;;;;;;;5.15;1.40;;;;;;;1.07;77.66;98601.72;4990647;28;20046;-58
2021/12/17 05:03:48;;;;;;;2.20;1.30;;;;;;;1.13;77.42;98606.00;4986794;28;20046;-60
2021/12/17 05:06:16;;;;;;;1.75;1.02;;;;;;;1.16;77.10;98610.09;4990989;28;20109;-61
2021/12/17 05:08:43;;;;;;;2.35;0.98;;;;;;;1.15;77.43;98612.03;4990952;28;20413;-64
2021/12/17 05:11:26;;;;;;;3.40;1.17;;;;;;;1.14;77.21;98613.13;4990354;28;20046;-65
2021/12/17 05:19:43;;;;;;;2.92;1.33;;;;;;;1.08;77.41;98617.06;4990690;28;20042;-66
2021/12/17 05:22:12;;;;;;;2.03;1.10;;;;;;;1.13;77.34;98621.66;4995335;28;20159;-68
2021/12/17 05:24:39;;;;;;;2.67;1.35;;;;;;;1.14;77.36;98618.63;4991750;28;20100;-65
2021/12/17 05:27:07;;;;;;;1.40;0.95;;;;;;;1.05;77.30;98620.38;4993804;28;20054;-68
2021/12/17 05:29:34;;;;;;;8.00;1.00;;;;;;;1.00;77.36;98625.09;4990654;28;20130;-60
2021/12/17 05:32:01;;;;;;;4.13;1.30;;;;;;;0.93;77.58;98624.63;4994802;28;20081;-59
2021/12/17 05:34:28;;;;;;;3.88;0.90;;;;;;;0.83;78.16;98636.50;4992966;28;20421;-60
2021/12/17 05:36:55;;;;;;;2.30;1.00;;;;;;;0.71;77.92;98633.38;4995476;28;20490;-66
2021/12/17 05:39:22;;;;;;;3.90;1.30;;;;;;;0.64;78.63;98635.66;4990897;28;20140;-66
2021/12/17 05:41:49;;;;;;;1.48;0.95;;;;;;;0.58;78.58;98645.03;4992943;28;20064;-62
2021/12/17 05:44:18;;;;;;;1.52;1.05;;;;;;;0.58;78.55;98647.75;4991124;28;20153;-61
2021/12/17 05:46:50;;;;;;;2.08;1.23;;;;;;;0.61;77.97;98652.66;4994846;28;20046;-61
2021/12/17 05:49:19;;;;;;;3.22;1.10;;;;;;;0.61;78.53;98641.72;4990406;28;20046;-61
2021/12/17 05:51:48;;;;;;;1.95;1.15;;;;;;;0.65;78.22;98650.94;4987131;28;20576;-61
2021/12/17 05:54:16;;;;;;;2.03;1.00;;;;;;;0.62;78.21;98651.53;4988415;28;20113;-59
2021/12/17 05:56:43;;;;;;;3.53;1.17;;;;;;;0.59;78.13;98651.31;4993782;28;20050;-59
2021/12/17 05:59:11;;;;;;;1.38;0.82;;;;;;;0.52;78.25;98654.38;4993592;28;20521;-59
2021/12/17 06:01:38;;;;;;;2.50;1.13;;;;;;;0.54;78.33;98660.41;4993437;28;20044;-63
2021/12/17 06:04:05;;;;;;;1.75;1.13;;;;;;;0.63;78.20;98657.84;4992595;28;20141;-62
2021/12/17 06:06:38;;;;;;;4.20;1.38;;;;;;;0.75;77.36;98658.25;4995154;28;20120;-62
2021/12/17 06:09:08;;;;;;;1.70;1.20;;;;;;;0.77;77.59;98667.78;4991404;28;20046;-64
2021/12/17 06:11:36;;;;;;;1.95;1.05;;;;;;;0.83;77.50;98672.09;4992641;28;20453;-62
2021/12/17 06:14:03;;;;;;;4.45;1.15;;;;;;;0.86;77.18;98676.19;4991008;28;20395;-62
2021/12/17 06:16:33;;;;;;;2.70;1.55;;;;;;;0.90;76.71;98672.59;4993518;28;20057;-62
2021/12/17 06:19:03;;;;;;;1.50;1.02;;;;;;;0.99;76.56;98676.31;4994467;28;20132;-62
2021/12/17 06:21:31;;;;;;;2.05;1.20;;;;;;;1.06;77.02;98687.72;4991993;28;20061;-62
2021/12/17 06:23:58;;;;;;;1.63;1.10;;;;;;;1.10;76.87;98688.75;4990618;28;20058;-62
2021/12/17 06:26:25;;;;;;;1.40;0.95;;;;;;;1.09;76.59;98692.63;4992541;28;20074;-62
2021/12/17 06:28:52;;;;;;;2.40;1.10;;;;;;;1.11;76.39;98695.88;4991336;28;20042;-62
2021/12/17 06:31:21;;;;;;;2.00;1.15;;;;;;;1.14;76.12;98698.03;4991647;28;20053;-62
2021/12/17 06:33:48;;;;;;;4.43;1.17;;;;;;;1.15;75.80;98696.09;4994410;28;20054;-62
2021/12/17 06:36:15;;;;;;;1.38;0.95;;;;;;;1.18;76.15;98700.97;4994424;28;20101;-62
2021/12/17 06:38:42;;;;;;;2.85;1.20;;;;;;;1.19;75.97;98706.16;4994491;28;20137;-62
2021/12/17 06:41:09;;;;;;;2.45;1.20;;;;;;;1.21;75.48;98706.72;4994007;28;20140;-63
2021/12/17 06:43:41;;;;;;;3.45;1.50;;;;;;;1.19;75.40;98699.91;4983350;28;20138;-62
2021/12/17 06:48:46;;;;;;;2.47;1.20;;;;;;;1.08;75.86;98704.69;4994562;28;20145;-61
2021/12/17 07:10:16;;;;;;;2.30;1.48;;;;;;;1.49;74.32;98705.81;4994404;28;20054;-62
2021/12/17 07:24:15;;;;;;;2.63;1.30;;;;;;;1.43;74.20;98720.69;4992205;28;20074;-62
2021/12/17 07:35:12;;;;;;;;;;;;;;;1.59;73.65;98741.28;4993295;28;20149;-59
2021/12/17 07:40:09;;;;;;;2.13;1.40;;;;;;;1.72;73.45;98746.03;4992900;28;20085;-57
2021/12/17 07:42:37;;;;;;;2.15;1.30;;;;;;;1.79;72.98;98749.25;4992387;28;20521;-60
2021/12/17 07:45:04;;;;;;;5.78;1.80;;;;;;;1.82;72.68;98747.84;4993113;28;20042;-57
2021/12/17 07:47:31;;;;;;;3.92;2.35;;;;;;;1.83;72.61;98758.50;4992968;28;20058;-58
2021/12/17 07:49:59;;;;;;;3.65;1.77;;;;;;;1.83;72.68;98752.19;4987664;28;20628;-62
2021/12/17 07:52:26;;;;;;;4.40;1.98;;;;;;;1.88;72.57;98757.63;4990867;28;20082;-61
2021/12/17 07:54:55;;;;;;;7.82;2.00;;;;;;;1.92;72.43;98759.47;4992885;28;20073;-62
2021/12/17 07:57:23;;;;;;;3.58;1.95;;;;;;;1.96;72.45;98767.13;4973737;28;20096;-62
2021/12/17 07:59:51;;;;;;;2.60;1.55;;;;;;;1.98;72.44;98767.66;4992649;28;20360;-59
2021/12/17 08:02:18;;;;;;;3.55;1.77;;;;;;;1.93;72.30;98763.06;4992734;28;20056;-58
2021/12/17 08:04:46;;;;;;;3.85;2.00;;;;;;;1.89;72.34;98776.53;4990851;28;20046;-58
2021/12/17 08:07:12;;;;;;;3.13;1.80;;;;;;;1.79;72.82;98773.94;4993196;28;20137;-58
2021/12/17 08:09:40;;;;;;;83.13;27.08;;;;;;;1.77;72.69;98770.66;4989161;28;20050;-59
2021/12/17 08:12:09;;;;;;;10.15;4.15;;;;;;;1.76;72.92;98765.47;4988758;28;20050;-65
2021/12/17 08:14:36;;;;;;;7.10;2.38;;;;;;;1.77;72.88;98767.09;4988415;28;20114;-64
2021/12/17 08:17:28;;;;;;;5.32;2.20;;;;;;;1.73;73.06;98777.84;4989137;28;20447;-64
2021/12/17 08:25:47;;;;;;;3.17;1.80;;;;;;;1.79;72.74;98768.44;4991733;28;20057;-62
2021/12/17 08:28:16;;;;;;;4.40;2.30;;;;;;;1.78;72.89;98768.75;4990981;28;20177;-63
2021/12/17 08:30:43;;;;;;;3.38;2.08;;;;;;;1.82;72.26;98773.34;4992416;28;20050;-62
2021/12/17 08:33:10;;;;;;;4.18;2.10;;;;;;;1.83;72.46;98769.47;4991276;28;20105;-61
2021/12/17 08:35:38;;;;;;;3.80;1.77;;;;;;;1.87;72.46;98772.47;4990966;28;20148;-61
2021/12/17 08:38:09;;;;;;;7.00;1.83;;;;;;;1.89;72.69;98768.31;4987385;28;20054;-61
2021/12/17 08:40:37;;;;;;;3.67;1.90;;;;;;;1.97;72.57;98768.75;4990879;28;20046;-62
2021/12/17 08:43:05;;;;;;;6.38;2.45;;;;;;;2.00;72.37;98773.63;4991090;28;20073;-62
2021/12/17 08:45:32;;;;;;;5.72;2.05;;;;;;;1.93;72.73;98780.31;4992234;28;20054;-65
2021/12/17 08:47:59;;;;;;;3.97;2.10;;;;;;;1.97;72.64;98774.22;4988715;28;20521;-66
2021/12/17 08:50:27;;;;;;;4.32;2.30;;;;;;;2.04;72.34;98770.00;4991810;28;20077;-65
2021/12/17 08:52:54;;;;;;;4.03;2.22;;;;;;;2.08;72.01;98770.25;4987860;28;20104;-62
2021/12/17 08:55:21;;;;;;;4.15;2.25;;;;;;;2.06;72.13;98777.94;4991704;28;20070;-62
2021/12/17 08:57:50;;;;;;;7.90;2.78;;;;;;;2.00;72.15;98779.94;4985059;28;20063;-59
2021/12/17 09:00:17;;;;;;;4.43;2.70;;;;;;;2.05;71.92;98770.81;4991235;28;20072;-58
2021/12/17 09:02:44;;;;;;;5.25;2.30;;;;;;;2.06;72.17;98772.44;4989325;28;20146;-57
2021/12/17 09:05:11;;;;;;;7.63;3.33;;;;;;;2.08;72.23;98767.50;4992433;28;20402;-60
2021/12/17 09:07:38;;;;;;;6.53;3.17;;;;;;;2.08;71.85;98771.06;4991975;28;20050;-58
2021/12/17 09:10:07;;;;;;;8.20;3.63;;;;;;;2.10;72.09;98774.31;4990892;28;20050;-59
2021/12/17 09:12:36;;;;;;;4.88;2.45;;;;;;;2.12;71.94;98771.25;4989237;28;20513;-62
2021/12/17 09:15:03;;;;;;;6.10;3.22;;;;;;;2.13;71.97;98778.41;4991282;28;20070;-62
2021/12/17 09:17:35;;;;;;;5.78;2.63;;;;;;;2.09;72.03;98777.34;4990441;28;20046;-62
2021/12/17 09:20:05;;;;;;;5.47;2.63;;;;;;;2.10;72.02;98779.00;4991047;28;20502;-63
2021/12/17 09:22:33;;;;;;;;;;;;;;;2.06;72.11;98784.25;4990072;28;20050;-62
2021/12/17 09:25:01;;;;;;;7.07;3.00;;;;;;;2.06;72.20;98784.25;4990211;28;19953;-61
2021/12/17 09:27:29;;;;;;;10.25;3.28;;;;;;;2.09;72.15;98791.88;4991391;28;20057;-62
2021/12/17 09:29:55;;;;;;;9.75;2.90;;;;;;;2.10;72.26;98779.00;4989379;28;20069;-61
2021/12/17 09:32:22;;;;;;;6.90;2.83;;;;;;;2.12;72.12;98782.22;4991588;28;20101;-60
2021/12/17 09:34:49;;;;;;;6.15;3.03;;;;;;;2.15;71.94;98787.13;4990644;28;20047;-61
2021/12/17 09:37:17;;;;;;;9.63;3.72;;;;;;;2.11;72.16;98781.44;4982747;28;20476;-61
2021/12/17 09:39:44;;;;;;;10.05;3.88;;;;;;;2.18;72.00;98789.28;4988022;28;20054;-63
2021/12/17 09:42:14;;;;;;;8.00;4.15;;;;;;;2.28;71.99;98783.66;4984793;28;20124;-63
2021/12/17 09:44:41;;;;;;;9.00;4.43;;;;;;;2.31;71.76;98791.31;4987264;28;20063;-64
2021/12/17 09:47:09;;;;;;;9.48;4.10;;;;;;;2.18;72.00;98790.09;4987139;28;20073;-63
2021/12/17 09:49:38;;;;;;;6.70;3.38;;;;;;;2.17;71.99;98787.66;4984105;28;20061;-63
2021/12/17 09:52:05;;;;;;;9.32;4.63;;;;;;;2.11;72.58;98795.16;4989584;28;20038;-65
2021/12/17 09:54:32;;;;;;;8.00;3.13;;;;;;;1.99;72.95;98789.28;4987404;28;20410;-65
2021/12/17 09:56:59;;;;;;;7.18;3.38;;;;;;;1.89;73.04;98784.75;4989802;28;20465;-65
2021/12/17 09:59:26;;;;;;;5.20;3.05;;;;;;;1.91;72.98;98781.72;4988549;28;20071;-64
2021/12/17 10:01:53;;;;;;;7.43;3.60;;;;;;;1.98;72.97;98787.63;4992940;28;20116;-65
2021/12/17 10:04:20;;;;;;;6.90;3.30;;;;;;;2.00;73.01;98785.44;4993014;28;20529;-65
2021/12/17 10:06:49;;;;;;;6.85;3.40;;;;;;;2.00;73.22;98790.09;4990807;28;20049;-66
2021/12/17 10:09:16;;;;;;;9.98;4.45;;;;;;;2.06;73.30;98791.66;4989714;28;20517;-65
2021/12/17 10:12:06;;;;;;;5.82;3.33;;;;;;;2.18;73.21;98789.28;4990743;28;20125;-64
2021/12/17 10:14:33;;;;;;;8.57;3.77;;;;;;;2.17;72.93;98783.00;4991278;28;20129;-67
2021/12/17 10:17:12;;;;;;;16.63;3.95;;;;;;;2.19;73.01;98788.97;4992493;28;20053;-65
2021/12/17 10:19:51;;;;;;;7.45;3.88;;;;;;;2.26;73.00;98792.19;4989948;28;20059;-64
2021/12/17 10:22:29;;;;;;;7.93;3.33;;;;;;;2.25;72.88;98790.53;4993309;28;20133;-64
2021/12/17 10:25:03;;;;;;;5.95;3.33;;;;;;;2.22;73.21;98793.09;4992721;28;20536;-64
2021/12/17 10:27:36;;;;;;;6.90;3.55;;;;;;;2.27;72.98;98787.50;4995319;28;20054;-66
2021/12/17 10:30:19;;;;;;;5.97;3.22;;;;;;;2.28;72.93;98791.91;4992768;28;20525;-65
2021/12/17 10:32:52;;;;;;;10.88;4.47;;;;;;;2.19;72.85;98791.72;4992830;28;20105;-65
2021/12/17 10:35:25;;;;;;;6.90;3.80;;;;;;;2.16;73.35;98805.25;4994052;28;20054;-64
2021/12/17 10:37:58;;;;;;;9.55;3.85;;;;;;;2.17;73.38;98801.38;4992826;28;20053;-65
2021/12/17 10:40:48;;;;;;;7.78;4.28;;;;;;;2.23;72.86;98812.00;4988913;28;20049;-64
2021/12/17 10:43:27;;;;;;;7.28;3.92;;;;;;;2.23;73.01;98811.16;4988637;28;20055;-64
2021/12/17 10:46:03;;;;;;;6.93;3.70;;;;;;;2.21;73.18;98814.22;4994165;28;20049;-64
2021/12/17 10:48:50;;;;;;;6.85;3.25;;;;;;;2.19;73.07;98816.41;4991285;28;20050;-65
2021/12/17 10:54:04;;;;;;;9.02;3.97;;;;;;;2.16;72.99;98822.50;4991061;28;20557;-64
2021/12/17 10:56:35;;;;;;;11.30;4.03;;;;;;;2.19;72.85;98832.88;4992579;28;21147;-65
2021/12/17 10:59:31;;;;;;;9.82;3.45;;;;;;;2.19;72.75;98823.84;4994118;28;20548;-63
2021/12/17 11:02:05;;;;;;;6.80;3.10;;;;;;;2.23;72.79;98831.19;4989591;28;20145;-64
2021/12/17 11:04:34;;;;;;;8.98;3.70;;;;;;;2.26;72.79;98832.53;4992545;28;20470;-64
2021/12/17 11:07:12;;;;;;;8.25;3.40;;;;;;;2.27;72.50;98842.38;4993522;28;20054;-63
2021/12/17 11:09:45;;;;;;;5.53;3.08;;;;;;;2.25;72.51;98831.69;4990263;28;20085;-64
2021/12/17 11:12:25;;;;;;;6.05;3.10;;;;;;;2.24;72.41;98846.53;4989362;28;20050;-64
2021/12/17 11:14:54;;;;;;;6.00;3.70;;;;;;;2.20;72.52;98839.19;4991096;28;20059;-64
2021/12/17 11:17:21;;;;;;;7.20;3.10;;;;;;;2.16;72.80;98844.44;4991375;28;20046;-64
2021/12/17 11:20:17;;;;;;;10.48;2.88;;;;;;;2.09;72.71;98845.91;4991382;28;20054;-64
2021/12/17 11:22:46;;;;;;;81.20;24.15;;;;;;;2.04;72.87;98837.78;4992855;28;20153;-65
2021/12/17 11:25:16;;;;;;;15.70;8.45;;;;;;;2.11;72.74;98840.97;4989381;28;20053;-65
2021/12/17 11:27:43;;;;;;;6.00;3.07;;;;;;;2.13;72.21;98844.25;4992377;28;20046;-64
2021/12/17 11:30:14;;;;;;;5.72;2.83;;;;;;;2.18;72.33;98846.91;4992523;28;20846;-64
2021/12/17 11:32:43;;;;;;;6.40;3.15;;;;;;;2.19;72.18;98852.09;4992300;28;20395;-64
2021/12/17 11:35:12;;;;;;;9.02;3.10;;;;;;;2.21;72.17;98851.78;4987601;28;20054;-65
2021/12/17 11:37:42;;;;;;;6.00;2.83;;;;;;;2.21;72.07;98851.78;4988643;28;20137;-65
2021/12/17 11:40:17;;;;;;;7.70;3.42;;;;;;;2.22;71.96;98858.94;4988441;28;20413;-66
2021/12/17 11:42:59;;;;;;;5.13;2.85;;;;;;;2.23;71.77;98855.88;4991924;28;20427;-64
2021/12/17 11:45:28;;;;;;;4.72;2.50;;;;;;;2.19;71.85;98854.03;4990448;28;20050;-64
2021/12/17 11:48:18;;;;;;;9.02;2.88;;;;;;;2.11;71.98;98857.44;4992368;28;20046;-64
2021/12/17 11:51:16;;;;;;;8.32;2.90;;;;;;;2.10;71.80;98855.81;4991027;28;20557;-64
2021/12/17 11:53:52;;;;;;;8.50;3.00;;;;;;;2.07;71.88;98861.88;4991071;28;20443;-64
2021/12/17 11:56:39;;;;;;;5.80;2.58;;;;;;;2.07;71.62;98859.13;4989193;28;20053;-64
2021/12/17 11:59:11;;;;;;;8.10;2.70;;;;;;;2.06;71.44;98854.72;4990496;28;20042;-65
2021/12/17 12:01:57;;;;;;;8.27;2.92;;;;;;;2.08;71.26;98871.72;4991777;28;20050;-64
2021/12/17 12:04:43;;;;;;;5.72;2.50;;;;;;;2.03;71.16;98863.56;4989627;28;20686;-65
2021/12/17 12:07:14;;;;;;;6.18;2.67;;;;;;;2.08;71.42;98877.22;4989634;28;20068;-65
2021/12/17 12:09:57;;;;;;;8.00;2.75;;;;;;;2.09;71.06;98876.91;4990366;28;20054;-65
2021/12/17 12:12:31;;;;;;;8.23;2.97;;;;;;;2.03;71.38;98880.84;4988518;28;20523;-65
2021/12/17 12:15:16;;;;;;;6.82;3.17;;;;;;;2.01;71.20;98877.56;4991825;28;20429;-65
2021/12/17 12:18:02;;;;;;;6.53;2.80;;;;;;;2.01;71.30;98874.03;4984999;28;20057;-65
2021/12/17 12:20:43;;;;;;;7.10;3.47;;;;;;;2.05;71.20;98875.06;4990513;28;20501;-65
2021/12/17 12:23:36;;;;;;;5.53;2.72;;;;;;;2.08;71.19;98877.22;4986031;28;20042;-64
2021/12/17 12:26:08;;;;;;;5.32;2.95;;;;;;;2.07;71.22;98881.06;4989717;28;20050;-64
2021/12/17 12:28:57;;;;;;;8.85;3.70;;;;;;;2.05;70.87;98875.88;4989332;28;20466;-63
2021/12/17 12:31:24;;;;;;;6.13;3.22;;;;;;;1.96;71.16;98880.38;4992571;28;20134;-65
2021/12/17 12:34:06;;;;;;;6.53;3.50;;;;;;;1.93;71.23;98887.25;4992311;28;20081;-65
2021/12/17 12:37:38;;;;;;;12.07;3.60;;;;;;;1.87;71.49;98893.91;4992614;28;20061;-64
2021/12/17 12:40:15;;;;;;;5.90;3.35;;;;;;;1.82;71.58;98888.50;4954814;28;20133;-64
2021/12/17 12:42:50;;;;;;;9.00;3.15;;;;;;;1.81;71.74;98889.59;4989582;28;20105;-65
2021/12/17 12:45:17;;;;;;;5.28;2.50;;;;;;;1.78;71.55;98890.19;4990723;28;20426;-65
2021/12/17 12:47:50;;;;;;;6.50;3.65;;;;;;;1.73;71.37;98893.00;4992561;28;20047;-64
2021/12/17 12:50:19;;;;;;;7.65;3.55;;;;;;;1.72;71.85;98894.09;4992270;28;20112;-66
2021/12/17 12:52:51;;;;;;;7.15;2.88;;;;;;;1.73;71.92;98898.47;4990427;28;20546;-66
2021/12/17 12:55:27;;;;;;;6.55;3.05;;;;;;;1.76;71.95;98895.16;4991304;28;20085;-65
2021/12/17 12:58:14;;;;;;;5.70;2.80;;;;;;;1.76;72.02;98895.16;4992626;28;20050;-65
2021/12/17 13:00:58;;;;;;;6.47;3.53;;;;;;;1.70;71.96;98896.31;4992755;28;20054;-66
2021/12/17 13:03:29;;;;;;;16.60;5.82;;;;;;;1.69;72.21;98900.16;4991836;28;20413;-65
2021/12/17 13:05:56;;;;;;;;;;;;;;;1.67;72.12;98896.91;4992952;28;20133;-67
2021/12/17 13:08:23;;;;;;;5.55;2.83;;;;;;;1.67;72.39;98907.88;4992218;28;19926;-65
2021/12/17 13:10:58;;;;;;;7.25;3.35;;;;;;;1.67;72.52;98907.88;4992188;28;20052;-66
2021/12/17 13:13:35;;;;;;;8.80;3.80;;;;;;;1.70;72.15;98903.72;4991913;28;20046;-65
2021/12/17 13:16:12;;;;;;;6.85;3.17;;;;;;;1.71;72.23;98897.94;4990892;28;20054;-65
2021/12/17 13:21:33;;;;;;;5.50;2.80;;;;;;;1.46;72.85;98905.63;4992063;28;20077;-65
2021/12/17 13:24:14;;;;;;;;;;;;;;;1.43;72.95;98909.75;4992248;28;20058;-65
2021/12/17 13:26:50;;;;;;;6.30;2.92;;;;;;;1.44;73.01;98914.13;4992079;28;19926;-65
2021/12/17 13:29:33;;;;;;;8.32;2.47;;;;;;;1.42;72.96;98918.28;4988995;28;20136;-66
2021/12/17 13:32:02;;;;;;;6.65;3.05;;;;;;;1.39;72.75;98916.91;4991743;28;20045;-65
2021/12/17 13:34:47;;;;;;;6.05;2.67;;;;;;;1.43;72.99;98930.84;4992207;28;20517;-66
2021/12/17 13:37:21;;;;;;;9.50;4.00;;;;;;;1.43;72.90;98928.94;4995774;28;20523;-65
2021/12/17 13:39:55;;;;;;;4.65;2.58;;;;;;;1.47;73.06;98926.41;4995878;28;20133;-66
2021/12/17 13:42:35;;;;;;;6.70;2.95;;;;;;;1.42;72.80;98935.50;4993556;28;20046;-64
2021/12/17 13:45:18;;;;;;;6.85;2.75;;;;;;;1.44;72.83;98943.44;4995478;28;20149;-65
2021/12/17 13:47:47;;;;;;;6.75;2.90;;;;;;;1.43;72.89;98944.56;4993345;28;20057;-65
2021/12/17 13:50:25;;;;;;;5.10;2.50;;;;;;;1.44;72.56;98947.00;4995121;28;20069;-65
2021/12/17 13:52:59;;;;;;;6.82;3.15;;;;;;;1.44;72.47;98957.97;4994089;28;20070;-66
2021/12/17 13:55:35;;;;;;;4.28;2.60;;;;;;;1.43;72.13;98956.34;4994438;28;20054;-64
2021/12/17 13:58:08;;;;;;;;;;;;;;;1.36;72.17;98955.84;4996088;28;20050;-64
2021/12/17 14:00:42;;;;;;;9.88;2.55;;;;;;;1.34;72.17;98957.25;4995626;28;20365;-65
2021/12/17 14:03:13;;;;;;;3.70;2.15;;;;;;;1.28;71.66;98959.22;4995774;28;20046;-65
2021/12/17 14:05:43;;;;;;;;;;;;;;;1.13;72.00;98967.53;4995622;28;20097;-64
2021/12/17 14:08:13;;;;;;;4.47;2.40;;;;;;;1.11;71.70;98968.94;4995051;28;20275;-65
2021/12/17 14:10:41;;;;;;;4.32;2.20;;;;;;;1.10;71.84;98965.34;4994384;28;20046;-64
2021/12/17 14:13:19;;;;;;;5.72;2.70;;;;;;;1.11;71.98;98968.94;4995481;28;20743;-64
2021/12/17 14:16:03;;;;;;;4.15;2.13;;;;;;;1.07;71.96;98971.41;4993731;28;20050;-64
2021/12/17 14:18:30;;;;;;;4.13;1.92;;;;;;;1.03;71.73;98978.56;4995056;28;20050;-65
2021/12/17 14:21:03;;;;;;;4.82;2.17;;;;;;;1.01;71.50;98979.97;4993971;28;20042;-65
2021/12/17 14:23:32;;;;;;;3.45;2.17;;;;;;;0.98;71.64;98986.81;4994931;28;20050;-64
2021/12/17 14:26:07;;;;;;;6.88;2.50;;;;;;;0.99;71.32;98977.50;4994298;28;20058;-65
2021/12/17 14:28:38;;;;;;;4.30;2.10;;;;;;;0.98;71.63;98984.06;4987173;28;20062;-64
2021/12/17 14:31:12;;;;;;;6.20;2.53;;;;;;;1.00;71.38;98976.41;4995009;28;20134;-66
2021/12/17 14:33:46;;;;;;;4.05;2.10;;;;;;;0.97;71.26;98985.19;4994667;28;20050;-65
2021/12/17 14:36:26;;;;;;;5.28;2.30;;;;;;;0.97;71.46;98985.19;4992370;28;20133;-65
2021/12/17 14:39:03;;;;;;;7.25;2.22;;;;;;;0.97;71.22;99001.59;4994257;28;20060;-64
2021/12/17 14:41:47;;;;;;;3.13;1.90;;;;;;;0.89;71.60;98983.03;4992833;28;20141;-65
2021/12/17 14:47:09;;;;;;;2.42;1.10;;;;;;;0.80;70.84;98995.69;4985935;28;20569;-64
2021/12/17 15:00:45;;;;;;;2.77;1.60;;;;;;;0.76;70.65;99022.00;4992789;28;20516;-59
2021/12/17 15:03:41;;;;;;;4.75;1.52;;;;;;;0.75;70.71;99025.84;4991428;28;20074;-59
2021/12/17 15:06:15;;;;;;;4.47;1.80;;;;;;;0.84;70.25;99024.16;4993697;28;20053;-58
2021/12/17 15:08:44;;;;;;;8.68;1.55;;;;;;;0.89;70.24;99031.50;4993264;28;20050;-59
2021/12/17 15:11:37;;;;;;;4.22;1.55;;;;;;;0.82;70.53;99031.81;4993423;28;20456;-61
2021/12/17 15:14:03;;;;;;;3.10;1.45;;;;;;;0.78;69.94;99036.22;4991874;28;20039;-60
2021/12/17 15:16:32;;;;;;;2.75;1.20;;;;;;;0.83;70.25;99033.44;4992489;28;20116;-61
2021/12/17 15:19:00;;;;;;;4.38;1.08;;;;;;;0.86;70.31;99038.34;4993491;28;20141;-60
2021/12/17 15:21:29;;;;;;;2.33;1.15;;;;;;;0.86;69.61;99041.09;4993520;28;20141;-60